createdAt,value
2023-04-16T00:02:20.474Z,4.63
2023-04-16T00:04:49.088Z,4.10
2023-04-16T00:07:18.726Z,3.90
2023-04-16T00:09:47.029Z,4.18
2023-04-16T00:12:15.874Z,3.88
2023-04-16T00:14:44.146Z,4.03
2023-04-16T00:17:12.413Z,4.22
2023-04-16T00:19:40.640Z,4.30
2023-04-16T00:22:09.107Z,4.57
2023-04-16T00:24:38.777Z,4.95
2023-04-16T00:27:07.733Z,4.00
2023-04-16T00:29:36.016Z,3.88
2023-04-16T00:32:04.261Z,4.00
2023-04-16T00:34:32.471Z,4.10
2023-04-16T00:37:01.651Z,4.18
2023-04-16T00:39:30.008Z,3.80
2023-04-16T00:41:59.621Z,3.47
2023-04-16T00:44:27.821Z,3.53
2023-04-16T00:46:57.177Z,3.75
2023-04-16T00:49:25.696Z,4.13
2023-04-16T00:51:53.949Z,3.75
2023-04-16T00:54:22.715Z,3.90
2023-04-16T00:56:52.573Z,3.78
2023-04-16T00:59:22.629Z,3.88
2023-04-16T01:01:50.966Z,4.30
2023-04-16T01:04:19.441Z,3.40
2023-04-16T01:06:47.819Z,3.95
2023-04-16T01:09:16.189Z,3.60
2023-04-16T01:11:44.460Z,3.78
2023-04-16T01:14:12.962Z,3.55
2023-04-16T01:16:42.620Z,3.65
2023-04-16T01:19:11.112Z,3.60
2023-04-16T01:21:41.028Z,3.60
2023-04-16T01:24:09.559Z,3.85
2023-04-16T01:26:37.770Z,3.72
2023-04-16T01:29:06.149Z,3.92
2023-04-16T01:31:34.482Z,3.72
2023-04-16T01:34:06.809Z,3.90
2023-04-16T01:36:36.585Z,3.88
2023-04-16T01:39:06.284Z,3.70
2023-04-16T01:41:34.722Z,4.05
2023-04-16T01:44:03.532Z,3.88
2023-04-16T01:46:34.538Z,4.07
2023-04-16T01:49:03.686Z,4.07
2023-04-16T01:51:32.242Z,4.40
2023-04-16T01:54:00.743Z,4.20
2023-04-16T01:56:30.476Z,4.50
2023-04-16T01:58:58.815Z,4.65
2023-04-16T02:01:31.948Z,4.18
2023-04-16T02:04:00.631Z,4.65
2023-04-16T02:06:28.969Z,3.92
2023-04-16T02:08:57.379Z,3.63
2023-04-16T02:11:26.991Z,3.85
2023-04-16T02:13:57.635Z,4.00
2023-04-16T02:16:26.396Z,4.40
2023-04-16T02:19:00.196Z,3.72
2023-04-16T02:21:32.619Z,4.10
2023-04-16T02:24:01.498Z,3.72
2023-04-16T02:26:32.313Z,3.67
2023-04-16T02:29:08.430Z,3.95
2023-04-16T02:31:43.142Z,3.55
2023-04-16T02:34:12.556Z,4.10
2023-04-16T02:36:40.926Z,3.80
2023-04-16T02:39:09.653Z,3.63
2023-04-16T02:41:38.633Z,3.72
2023-04-16T02:44:08.561Z,4.63
2023-04-16T02:46:36.726Z,3.80
2023-04-16T02:49:04.968Z,3.60
2023-04-16T02:51:33.297Z,3.65
2023-04-16T02:54:03.065Z,3.63
2023-04-16T02:56:32.260Z,3.58
2023-04-16T02:59:00.563Z,3.60
2023-04-16T03:01:30.327Z,4.25
2023-04-16T03:03:58.813Z,3.72
2023-04-16T03:06:27.560Z,3.80
2023-04-16T03:08:55.852Z,3.70
2023-04-16T03:11:24.148Z,4.47
2023-04-16T03:13:52.376Z,3.80
2023-04-16T03:16:20.776Z,4.57
2023-04-16T03:18:50.671Z,4.68
2023-04-16T03:21:19.216Z,4.75
2023-04-16T03:23:47.696Z,4.97
2023-04-16T03:26:16.452Z,4.40
2023-04-16T03:28:44.675Z,5.53
2023-04-16T03:31:13.055Z,5.20
2023-04-16T03:33:41.490Z,5.80
2023-04-16T03:36:11.609Z,5.88
2023-04-16T03:38:39.873Z,6.13
2023-04-16T03:41:09.134Z,5.38
2023-04-16T03:43:38.743Z,5.43
2023-04-16T03:46:07.214Z,4.80
2023-04-16T03:48:36.557Z,4.97
2023-04-16T03:51:05.849Z,4.85
2023-04-16T03:53:36.337Z,4.85
2023-04-16T03:56:04.929Z,5.15
2023-04-16T03:58:33.185Z,4.82
2023-04-16T04:01:01.545Z,4.75
2023-04-16T04:03:30.134Z,4.93
2023-04-16T04:05:58.641Z,4.35
2023-04-16T04:08:30.468Z,4.85
2023-04-16T04:11:00.204Z,5.60
2023-04-16T04:13:29.333Z,5.22
2023-04-16T04:15:58.401Z,5.43
2023-04-16T04:18:28.461Z,5.40
2023-04-16T04:20:57.245Z,5.20
2023-04-16T04:23:29.447Z,5.72
2023-04-16T04:25:59.520Z,5.45
2023-04-16T04:28:27.861Z,5.28
2023-04-16T04:30:56.373Z,5.47
2023-04-16T04:33:24.618Z,4.65
2023-04-16T04:35:53.080Z,4.72
2023-04-16T04:38:25.327Z,4.43
2023-04-16T04:40:54.951Z,4.43
2023-04-16T04:43:26.328Z,4.25
2023-04-16T04:45:54.622Z,4.60
2023-04-16T04:48:26.615Z,4.18
2023-04-16T04:50:56.117Z,3.85
2023-04-16T04:53:25.283Z,4.38
2023-04-16T04:55:55.657Z,4.05
2023-04-16T04:58:27.130Z,4.07
2023-04-16T05:00:55.545Z,4.10
2023-04-16T05:03:23.848Z,3.70
2023-04-16T05:05:52.170Z,3.90
2023-04-16T05:08:20.439Z,5.47
2023-04-16T05:10:48.670Z,4.85
2023-04-16T05:13:16.856Z,4.13
2023-04-16T05:15:46.861Z,4.70
2023-04-16T05:18:15.097Z,3.97
2023-04-16T05:20:43.335Z,4.13
2023-04-16T05:23:11.747Z,4.10
2023-04-16T05:25:39.984Z,4.45
2023-04-16T05:28:08.221Z,4.50
2023-04-16T05:30:36.467Z,4.35
2023-04-16T05:33:06.223Z,4.35
2023-04-16T05:35:35.132Z,4.57
2023-04-16T05:38:04.483Z,4.18
2023-04-16T05:40:32.951Z,4.63
2023-04-16T05:43:01.157Z,4.75
2023-04-16T05:45:29.503Z,4.70
2023-04-16T05:47:57.882Z,4.28
2023-04-16T05:50:27.562Z,4.75
2023-04-16T05:52:55.786Z,4.68
2023-04-16T05:55:23.972Z,5.30
2023-04-16T05:57:52.204Z,5.05
2023-04-16T06:00:20.588Z,4.68
2023-04-16T06:02:48.928Z,4.50
2023-04-16T06:05:17.486Z,4.68
2023-04-16T06:07:47.124Z,6.07
2023-04-16T06:10:15.446Z,7.43
2023-04-16T06:12:43.775Z,4.70
2023-04-16T06:15:12.788Z,6.03
2023-04-16T06:17:41.621Z,5.43
2023-04-16T06:20:10.967Z,4.43
2023-04-16T06:22:39.241Z,5.07
2023-04-16T06:25:10.166Z,7.45
2023-04-16T06:27:38.585Z,5.20
2023-04-16T06:30:12.354Z,17.88
2023-04-16T06:32:40.994Z,13.02
2023-04-16T06:35:10.121Z,5.25
2023-04-16T06:37:38.448Z,12.50
2023-04-16T06:40:09.401Z,4.63
2023-04-16T06:42:37.845Z,4.70
2023-04-16T06:45:07.079Z,4.50
2023-04-16T06:47:35.458Z,5.32
2023-04-16T06:50:03.684Z,5.38
2023-04-16T06:52:32.290Z,7.63
2023-04-16T06:55:00.553Z,6.68
2023-04-16T06:57:30.273Z,5.00
2023-04-16T06:59:58.464Z,7.80
2023-04-16T07:02:26.947Z,5.50
2023-04-16T07:04:55.316Z,33.05
2023-04-16T07:07:23.635Z,27.05
2023-04-16T07:09:52.127Z,5.88
2023-04-16T07:12:22.876Z,5.68
2023-04-16T07:14:52.795Z,5.40
2023-04-16T07:17:21.012Z,5.30
2023-04-16T07:19:49.732Z,5.57
2023-04-16T07:22:18.178Z,5.82
2023-04-16T07:24:46.379Z,5.20
2023-04-16T07:27:14.524Z,5.60
2023-04-16T07:29:42.849Z,6.20
2023-04-16T07:32:15.257Z,7.30
2023-04-16T07:34:44.192Z,6.90
2023-04-16T07:37:12.425Z,5.60
2023-04-16T07:39:40.776Z,5.93
2023-04-16T07:42:09.002Z,8.98
2023-04-16T07:44:37.341Z,7.95
2023-04-16T07:47:05.870Z,6.40
2023-04-16T07:49:35.709Z,6.57
2023-04-16T07:52:03.947Z,6.10
2023-04-16T07:54:32.248Z,6.60
2023-04-16T07:57:00.530Z,6.25
2023-04-16T07:59:29.290Z,6.18
2023-04-16T08:01:58.072Z,6.72
2023-04-16T08:04:26.785Z,7.05
2023-04-16T08:06:56.587Z,9.20
2023-04-16T08:09:28.401Z,7.80
2023-04-16T08:11:56.838Z,6.90
2023-04-16T08:14:25.043Z,7.07
2023-04-16T08:16:53.293Z,7.50
2023-04-16T08:19:21.539Z,8.68
2023-04-16T08:21:49.892Z,7.45
2023-04-16T08:24:19.652Z,7.28
2023-04-16T08:26:47.877Z,8.52
2023-04-16T08:29:16.196Z,7.72
2023-04-16T08:31:44.746Z,7.68
2023-04-16T08:34:13.018Z,7.82
2023-04-16T08:36:41.969Z,7.38
2023-04-16T08:39:10.802Z,8.10
2023-04-16T08:41:44.136Z,7.78
2023-04-16T08:44:18.686Z,10.95
2023-04-16T08:46:48.051Z,7.18
2023-04-16T08:49:19.105Z,7.43
2023-04-16T08:51:55.419Z,8.10
2023-04-16T08:54:33.576Z,8.60
2023-04-16T08:57:07.637Z,8.50
2023-04-16T08:59:36.765Z,8.75
2023-04-16T09:02:06.959Z,6.90
2023-04-16T09:04:35.951Z,8.07
2023-04-16T09:07:07.473Z,12.77
2023-04-16T09:09:36.520Z,16.60
2023-04-16T09:12:06.431Z,14.85
2023-04-16T09:14:36.080Z,18.10
2023-04-16T09:17:05.355Z,11.73
2023-04-16T09:19:33.808Z,12.38
2023-04-16T09:22:02.103Z,12.13
2023-04-16T09:24:31.120Z,15.85
2023-04-16T09:27:00.285Z,26.40
2023-04-16T09:29:42.604Z,22.50
2023-04-16T09:32:12.422Z,9.07
2023-04-16T09:34:57.704Z,14.95
2023-04-16T09:37:29.691Z,19.98
2023-04-16T09:39:59.580Z,13.68
2023-04-16T09:42:29.627Z,18.63
2023-04-16T09:45:01.943Z,15.40
2023-04-16T09:47:41.968Z,14.82
2023-04-16T09:50:12.906Z,28.70
2023-04-16T09:52:43.316Z,15.20
2023-04-16T09:55:11.536Z,29.48
2023-04-16T09:57:39.965Z,12.38
2023-04-16T10:00:11.570Z,29.88
2023-04-16T10:02:42.712Z,34.97
2023-04-16T10:05:16.800Z,19.77
2023-04-16T10:07:45.252Z,22.10
2023-04-16T10:10:14.029Z,18.33
2023-04-16T10:12:43.717Z,18.17
2023-04-16T10:15:13.579Z,18.98
2023-04-16T10:17:42.166Z,19.13
2023-04-16T10:20:11.242Z,16.08
2023-04-16T10:22:39.634Z,17.27
2023-04-16T10:25:09.250Z,12.98
2023-04-16T10:27:38.603Z,25.13
2023-04-16T10:30:08.956Z,24.10
2023-04-16T10:32:39.833Z,23.63
2023-04-16T10:35:08.595Z,17.90
2023-04-16T10:37:39.069Z,12.18
2023-04-16T10:40:25.464Z,11.95
2023-04-16T10:42:58.299Z,13.93
2023-04-16T10:45:33.601Z,10.63
2023-04-16T10:48:06.101Z,12.80
2023-04-16T10:50:37.790Z,13.82
2023-04-16T10:53:19.281Z,14.55
2023-04-16T10:56:13.118Z,12.85
2023-04-16T10:58:41.487Z,11.93
2023-04-16T11:01:14.128Z,11.30
2023-04-16T11:03:45.475Z,17.98
2023-04-16T11:06:16.748Z,11.05
2023-04-16T11:08:54.412Z,11.32
2023-04-16T11:11:23.954Z,11.85
2023-04-16T11:13:57.070Z,12.50
2023-04-16T11:16:26.440Z,13.27
2023-04-16T11:19:07.845Z,12.15
2023-04-16T11:21:37.145Z,11.85
2023-04-16T11:24:05.535Z,13.52
2023-04-16T11:26:33.837Z,14.55
2023-04-16T11:29:02.480Z,13.88
2023-04-16T11:31:30.896Z,12.65
2023-04-16T11:34:01.032Z,12.02
2023-04-16T11:36:29.360Z,12.02
2023-04-16T11:39:04.102Z,11.27
2023-04-16T11:41:32.428Z,11.00
2023-04-16T11:44:00.649Z,11.13
2023-04-16T11:46:40.662Z,14.88
2023-04-16T11:49:11.084Z,14.30
2023-04-16T11:51:43.282Z,20.48
2023-04-16T11:54:19.289Z,14.55
2023-04-16T11:56:49.032Z,11.35
2023-04-16T11:59:19.188Z,10.15
2023-04-16T12:01:49.458Z,10.85
2023-04-16T12:04:22.313Z,11.65
2023-04-16T12:07:05.841Z,12.15
2023-04-16T12:09:36.098Z,15.45
2023-04-16T12:12:06.863Z,12.35
2023-04-16T12:14:35.450Z,10.43
2023-04-16T12:17:20.819Z,13.27
2023-04-16T12:19:56.797Z,11.75
2023-04-16T12:22:29.869Z,12.82
2023-04-16T12:25:02.903Z,9.88
2023-04-16T12:27:46.643Z,8.40
2023-04-16T12:30:16.380Z,10.70
2023-04-16T12:32:46.183Z,9.15
2023-04-16T12:35:30.569Z,9.55
2023-04-16T12:37:59.031Z,10.07
2023-04-16T12:40:27.601Z,9.15
2023-04-16T12:42:56.090Z,8.85
2023-04-16T12:45:24.323Z,8.80
2023-04-16T12:47:52.906Z,10.48
2023-04-16T12:50:22.722Z,16.42
2023-04-16T12:52:51.688Z,10.48
2023-04-16T12:55:20.734Z,11.05
2023-04-16T12:57:49.947Z,11.77
2023-04-16T13:00:18.548Z,9.98
2023-04-16T13:02:47.025Z,12.35
2023-04-16T13:05:16.711Z,16.02
2023-04-16T13:07:46.593Z,10.32
2023-04-16T13:10:15.021Z,9.70
2023-04-16T13:12:43.490Z,8.48
2023-04-16T13:15:12.550Z,8.80
2023-04-16T13:17:40.971Z,10.70
2023-04-16T13:20:10.171Z,10.10
2023-04-16T13:22:38.552Z,9.55
2023-04-16T13:25:09.920Z,9.15
2023-04-16T13:27:38.332Z,9.77
2023-04-16T13:30:07.811Z,8.77
2023-04-16T13:32:36.375Z,8.65
2023-04-16T13:35:04.887Z,8.35
2023-04-16T13:37:33.615Z,8.98
2023-04-16T13:40:01.929Z,9.00
2023-04-16T13:42:33.762Z,9.25
2023-04-16T13:45:02.165Z,9.00
2023-04-16T13:47:32.653Z,9.52
2023-04-16T13:50:01.057Z,10.45
2023-04-16T13:52:29.379Z,13.00
2023-04-16T13:54:59.638Z,9.65
2023-04-16T13:57:29.222Z,9.68
2023-04-16T13:59:59.189Z,9.95
2023-04-16T14:02:27.871Z,9.32
2023-04-16T14:04:56.134Z,11.30
2023-04-16T14:07:27.100Z,10.27
2023-04-16T14:09:55.494Z,9.23
2023-04-16T14:12:23.855Z,15.15
2023-04-16T14:14:52.186Z,13.30
2023-04-16T14:17:21.958Z,11.40
2023-04-16T14:19:50.394Z,14.15
2023-04-16T14:22:18.642Z,9.27
2023-04-16T14:24:46.946Z,12.07
2023-04-16T14:27:15.296Z,9.50
2023-04-16T14:29:44.407Z,11.23
2023-04-16T14:32:12.821Z,8.65
2023-04-16T14:34:42.755Z,12.82
2023-04-16T14:37:11.167Z,11.73
2023-04-16T14:39:39.823Z,11.98
2023-04-16T14:42:08.062Z,11.38
2023-04-16T14:44:36.326Z,10.30
2023-04-16T14:47:04.646Z,10.30
2023-04-16T14:49:33.298Z,12.27
2023-04-16T14:52:05.574Z,12.10
2023-04-16T14:54:34.383Z,11.82
2023-04-16T14:57:03.512Z,13.02
2023-04-16T14:59:32.414Z,13.93
2023-04-16T15:02:01.135Z,12.75
2023-04-16T15:04:31.023Z,9.52
2023-04-16T15:06:59.393Z,16.40
2023-04-16T15:09:29.196Z,22.02
2023-04-16T15:11:58.158Z,19.45
2023-04-16T15:14:26.553Z,14.50
2023-04-16T15:16:55.031Z,19.23
2023-04-16T15:19:23.342Z,18.30
2023-04-16T15:21:51.717Z,15.00
2023-04-16T15:24:20.368Z,16.13
2023-04-16T15:26:49.943Z,12.05
2023-04-16T15:29:18.231Z,13.93
2023-04-16T15:31:46.615Z,13.65
2023-04-16T15:34:15.161Z,15.43
2023-04-16T15:36:43.467Z,15.45
2023-04-16T15:39:12.279Z,14.73
2023-04-16T15:41:53.583Z,14.10
2023-04-16T15:44:29.449Z,12.32
2023-04-16T15:46:57.645Z,13.02
2023-04-16T15:49:26.209Z,12.20
2023-04-16T15:51:54.745Z,12.75
2023-04-16T15:54:23.113Z,10.35
2023-04-16T15:56:51.598Z,11.25
2023-04-16T15:59:20.086Z,10.07
2023-04-16T16:01:49.837Z,10.40
2023-04-16T16:04:18.433Z,10.65
2023-04-16T16:06:46.742Z,9.63
2023-04-16T16:09:15.005Z,9.68
2023-04-16T16:11:43.228Z,8.80
2023-04-16T16:14:11.786Z,11.57
2023-04-16T16:16:40.253Z,10.65
2023-04-16T16:19:10.132Z,9.40
2023-04-16T16:21:38.668Z,9.55
2023-04-16T16:24:07.759Z,9.93
2023-04-16T16:26:35.994Z,10.05
2023-04-16T16:29:04.713Z,9.77
2023-04-16T16:31:33.069Z,9.80
2023-04-16T16:34:01.652Z,11.05
2023-04-16T16:36:32.444Z,10.98
2023-04-16T16:39:00.711Z,10.00
2023-04-16T16:41:28.930Z,10.85
2023-04-16T16:43:58.745Z,15.27
2023-04-16T16:46:27.034Z,20.15
2023-04-16T16:48:55.325Z,15.20
2023-04-16T16:51:23.733Z,21.40
2023-04-16T16:53:54.169Z,22.85
2023-04-16T16:56:23.014Z,24.27
2023-04-16T16:58:51.307Z,29.05
2023-04-16T17:01:19.702Z,30.38
2023-04-16T17:03:48.116Z,25.95
2023-04-16T17:06:16.713Z,28.00
2023-04-16T17:08:45.411Z,29.52
2023-04-16T17:11:18.265Z,33.83
2023-04-16T17:13:49.253Z,30.75
2023-04-16T17:16:19.190Z,33.95
2023-04-16T17:18:47.606Z,34.10
2023-04-16T17:21:16.830Z,33.75
2023-04-16T17:23:45.489Z,33.67
2023-04-16T17:26:13.686Z,53.72
2023-04-16T17:28:45.383Z,58.80
2023-04-16T17:31:16.760Z,46.83
2023-04-16T17:33:45.327Z,44.97
2023-04-16T17:36:14.133Z,41.75
2023-04-16T17:38:44.761Z,38.83
2023-04-16T17:41:13.347Z,35.35
2023-04-16T17:43:41.596Z,37.03
2023-04-16T17:46:12.578Z,37.55
2023-04-16T17:48:41.156Z,35.13
2023-04-16T17:51:12.931Z,33.53
2023-04-16T17:53:42.679Z,32.08
2023-04-16T17:56:11.302Z,34.95
2023-04-16T17:58:39.534Z,42.97
2023-04-16T18:01:07.861Z,38.10
2023-04-16T18:03:38.465Z,32.03
2023-04-16T18:06:07.259Z,34.25
2023-04-16T18:08:36.985Z,35.15
2023-04-16T18:11:11.009Z,38.65
2023-04-16T18:13:39.677Z,39.15
2023-04-16T18:16:14.909Z,58.80
2023-04-16T18:18:44.872Z,61.55
2023-04-16T18:21:13.304Z,64.00
2023-04-16T18:23:41.563Z,85.38
2023-04-16T18:26:11.070Z,62.22
2023-04-16T18:28:39.541Z,47.70
2023-04-16T18:31:08.084Z,38.17
2023-04-16T18:33:54.172Z,32.55
2023-04-16T18:36:26.658Z,34.25
2023-04-16T18:41:27.742Z,43.70
2023-04-16T18:43:55.976Z,48.95
2023-04-16T18:46:25.320Z,45.35
2023-04-16T18:48:58.316Z,41.80
2023-04-16T18:51:28.357Z,45.80
2023-04-16T18:53:56.814Z,39.17
2023-04-16T18:56:25.164Z,37.22
2023-04-16T18:58:53.480Z,31.10
2023-04-16T19:01:26.848Z,29.92
2023-04-16T19:03:56.212Z,29.08
2023-04-16T19:06:24.486Z,27.58
2023-04-16T19:08:57.183Z,26.45
2023-04-16T19:11:25.627Z,28.90
2023-04-16T19:13:53.900Z,47.35
2023-04-16T19:16:22.314Z,48.00
2023-04-16T19:18:50.873Z,36.67
2023-04-16T19:21:19.226Z,34.30
2023-04-16T19:23:48.258Z,35.80
2023-04-16T19:26:18.087Z,34.80
2023-04-16T19:28:46.917Z,37.72
2023-04-16T19:31:15.341Z,43.78
2023-04-16T19:33:43.610Z,48.38
2023-04-16T19:36:11.822Z,51.47
2023-04-16T19:38:40.228Z,58.45
2023-04-16T19:41:08.489Z,57.75
2023-04-16T19:43:38.166Z,56.67
2023-04-16T19:46:06.588Z,53.70
2023-04-16T19:48:34.787Z,50.63
2023-04-16T19:51:04.056Z,54.65
2023-04-16T19:53:32.436Z,55.78
2023-04-16T19:56:00.624Z,58.08
2023-04-16T19:58:28.842Z,56.20
2023-04-16T20:00:58.560Z,54.55
2023-04-16T20:03:26.888Z,50.40
2023-04-16T20:05:55.173Z,54.78
2023-04-16T20:08:23.523Z,58.58
2023-04-16T20:10:54.430Z,55.65
2023-04-16T20:13:22.901Z,62.65
2023-04-16T20:15:53.224Z,56.45
2023-04-16T20:18:22.895Z,53.50
2023-04-16T20:20:51.091Z,55.63
2023-04-16T20:23:21.904Z,52.80
2023-04-16T20:25:50.152Z,60.13
2023-04-16T20:28:21.445Z,61.72
2023-04-16T20:30:51.067Z,58.50
2023-04-16T20:33:23.837Z,54.88
2023-04-16T20:35:52.350Z,52.17
2023-04-16T20:38:23.929Z,52.78
2023-04-16T20:41:06.653Z,49.20
2023-04-16T20:43:41.113Z,52.38
2023-04-16T20:46:09.907Z,53.40
2023-04-16T20:48:40.188Z,53.55
2023-04-16T20:51:09.516Z,54.92
2023-04-16T20:53:38.174Z,43.05
2023-04-16T20:56:09.210Z,45.95
2023-04-16T20:58:37.553Z,46.08
2023-04-16T21:01:06.181Z,46.13
2023-04-16T21:03:34.972Z,41.67
2023-04-16T21:06:05.155Z,43.17
2023-04-16T21:08:33.625Z,42.53
2023-04-16T21:11:01.876Z,39.90
2023-04-16T21:13:30.251Z,38.63
2023-04-16T21:15:58.562Z,35.65
2023-04-16T21:18:26.885Z,36.33
2023-04-16T21:20:55.181Z,33.72
2023-04-16T21:23:25.036Z,35.83
2023-04-16T21:25:53.283Z,35.20
2023-04-16T21:28:21.480Z,33.67
2023-04-16T21:30:52.350Z,32.90
2023-04-16T21:33:20.920Z,34.22
2023-04-16T21:35:52.795Z,31.40
2023-04-16T21:38:21.856Z,32.08
2023-04-16T21:40:54.060Z,33.90
2023-04-16T21:43:22.793Z,35.83
2023-04-16T21:45:53.756Z,35.30
2023-04-16T21:48:22.016Z,33.33
2023-04-16T21:50:56.164Z,34.28
2023-04-16T21:53:24.470Z,33.75
2023-04-16T21:55:55.451Z,37.58
2023-04-16T21:58:24.498Z,36.85
2023-04-16T22:00:52.952Z,37.63
2023-04-16T22:03:26.359Z,38.33
2023-04-16T22:06:00.726Z,38.63
2023-04-16T22:08:29.628Z,37.92
2023-04-16T22:11:00.172Z,37.03
2023-04-16T22:13:32.471Z,37.47
2023-04-16T22:16:02.472Z,37.28
2023-04-16T22:18:32.954Z,37.42
2023-04-16T22:21:02.195Z,42.47
2023-04-16T22:23:30.412Z,39.13
2023-04-16T22:26:00.172Z,39.83
2023-04-16T22:28:28.367Z,36.53
2023-04-16T22:30:57.418Z,37.80
2023-04-16T22:33:25.909Z,34.85
2023-04-16T22:35:54.101Z,35.42
2023-04-16T22:38:22.635Z,39.17
2023-04-16T22:40:51.122Z,38.92
2023-04-16T22:43:20.719Z,39.90
2023-04-16T22:45:49.022Z,38.80
2023-04-16T22:48:17.885Z,40.72
2023-04-16T22:50:51.051Z,40.92
2023-04-16T22:53:19.419Z,39.40
2023-04-16T22:55:47.689Z,39.15
2023-04-16T22:58:17.050Z,40.78
2023-04-16T23:00:47.684Z,37.60
2023-04-16T23:03:16.305Z,38.70
2023-04-16T23:05:44.659Z,38.17
2023-04-16T23:08:12.922Z,37.22
2023-04-16T23:10:41.193Z,39.58
2023-04-16T23:13:11.588Z,35.10
2023-04-16T23:15:39.883Z,35.25
2023-04-16T23:18:09.647Z,34.83
2023-04-16T23:20:37.963Z,34.03
2023-04-16T23:23:06.259Z,34.17
2023-04-16T23:25:34.470Z,32.70
2023-04-16T23:28:02.682Z,31.23
2023-04-16T23:30:30.946Z,28.42
2023-04-16T23:32:59.198Z,32.97
2023-04-16T23:35:28.881Z,35.28
2023-04-16T23:37:57.295Z,36.60
2023-04-16T23:40:25.733Z,34.53
2023-04-16T23:42:53.879Z,31.40
2023-04-16T23:45:22.846Z,31.67
2023-04-16T23:47:51.850Z,33.83
2023-04-16T23:50:20.236Z,33.47
2023-04-16T23:52:49.918Z,31.27
2023-04-16T23:55:18.256Z,30.13
2023-04-16T23:57:46.738Z,31.10
